sensor_id;sensor_type;location;lat;lon;timestamp;P1;durP1;ratioP1;P2;durP2;ratioP2
30635;SDS011;17400;52.392;9.750;2022-08-02T04:01:06;6.85;;;2.80;;
30635;SDS011;17400;52.392;9.750;2022-08-02T04:03:37;6.47;;;2.47;;
30635;SDS011;17400;52.392;9.750;2022-08-02T04:06:06;4.75;;;2.60;;
30635;SDS011;17400;52.392;9.750;2022-08-02T04:08:42;6.13;;;2.60;;
30635;SDS011;17400;52.392;9.750;2022-08-02T04:11:11;5.45;;;3.08;;
30635;SDS011;17400;52.392;9.750;2022-08-02T04:14:05;3.63;;;2.00;;
30635;SDS011;17400;52.392;9.750;2022-08-02T04:17:09;7.78;;;3.50;;
30635;SDS011;17400;52.392;9.750;2022-08-02T04:19:46;7.28;;;2.72;;
30635;SDS011;17400;52.392;9.750;2022-08-02T04:22:42;4.35;;;2.72;;
30635;SDS011;17400;52.392;9.750;2022-08-02T04:25:17;5.78;;;2.70;;
30635;SDS011;17400;52.392;9.750;2022-08-02T04:28:05;4.65;;;2.47;;
30635;SDS011;17400;52.392;9.750;2022-08-02T04:30:51;4.55;;;2.78;;
30635;SDS011;17400;52.392;9.750;2022-08-02T04:33:26;6.55;;;2.55;;
30635;SDS011;17400;52.392;9.750;2022-08-02T04:35:58;6.68;;;3.08;;
30635;SDS011;17400;52.392;9.750;2022-08-02T04:38:39;5.38;;;2.90;;
30635;SDS011;17400;52.392;9.750;2022-08-02T04:41:10;7.93;;;3.00;;
30635;SDS011;17400;52.392;9.750;2022-08-02T04:43:49;7.07;;;3.55;;
30635;SDS011;17400;52.392;9.750;2022-08-02T04:46:28;5.72;;;3.20;;
30635;SDS011;17400;52.392;9.750;2022-08-02T04:49:02;3.85;;;2.30;;
30635;SDS011;17400;52.392;9.750;2022-08-02T04:51:34;9.05;;;3.45;;
30635;SDS011;17400;52.392;9.750;2022-08-02T04:54:13;3.97;;;2.72;;
30635;SDS011;17400;52.392;9.750;2022-08-02T04:56:43;6.80;;;2.92;;
30635;SDS011;17400;52.392;9.750;2022-08-02T04:59:16;7.50;;;3.75;;
30635;SDS011;17400;52.392;9.750;2022-08-02T05:01:47;5.07;;;2.88;;
30635;SDS011;17400;52.392;9.750;2022-08-02T05:04:20;9.93;;;3.42;;
30635;SDS011;17400;52.392;9.750;2022-08-02T05:07:02;8.82;;;4.63;;
30635;SDS011;17400;52.392;9.750;2022-08-02T05:09:40;7.38;;;3.65;;
30635;SDS011;17400;52.392;9.750;2022-08-02T05:12:08;7.07;;;3.70;;
30635;SDS011;17400;52.392;9.750;2022-08-02T05:14:39;12.55;;;3.72;;
30635;SDS011;17400;52.392;9.750;2022-08-02T05:17:10;7.88;;;3.28;;
30635;SDS011;17400;52.392;9.750;2022-08-02T05:19:40;11.15;;;3.40;;
30635;SDS011;17400;52.392;9.750;2022-08-02T05:22:11;6.32;;;3.13;;
30635;SDS011;17400;52.392;9.750;2022-08-02T05:24:41;7.18;;;3.90;;
30635;SDS011;17400;52.392;9.750;2022-08-02T05:27:11;8.02;;;3.28;;
30635;SDS011;17400;52.392;9.750;2022-08-02T05:29:47;8.55;;;3.85;;
30635;SDS011;17400;52.392;9.750;2022-08-02T05:32:22;13.43;;;4.38;;
30635;SDS011;17400;52.392;9.750;2022-08-02T05:34:53;5.28;;;3.00;;
30635;SDS011;17400;52.392;9.750;2022-08-02T05:37:25;5.38;;;2.95;;
30635;SDS011;17400;52.392;9.750;2022-08-02T05:40:00;8.07;;;3.63;;
30635;SDS011;17400;52.392;9.750;2022-08-02T05:42:49;5.00;;;2.58;;
30635;SDS011;17400;52.392;9.750;2022-08-02T05:45:18;3.00;;;2.25;;
30635;SDS011;17400;52.392;9.750;2022-08-02T05:47:52;3.83;;;3.00;;
30635;SDS011;17400;52.392;9.750;2022-08-02T05:50:22;8.98;;;4.10;;
30635;SDS011;17400;52.392;9.750;2022-08-02T05:53:03;12.02;;;8.60;;
30635;SDS011;17400;52.392;9.750;2022-08-02T05:55:41;7.95;;;4.90;;
30635;SDS011;17400;52.392;9.750;2022-08-02T05:58:17;9.55;;;3.55;;
30635;SDS011;17400;52.392;9.750;2022-08-02T06:01:00;5.10;;;3.30;;
30635;SDS011;17400;52.392;9.750;2022-08-02T06:03:38;8.95;;;4.35;;
30635;SDS011;17400;52.392;9.750;2022-08-02T06:06:19;7.88;;;3.70;;
30635;SDS011;17400;52.392;9.750;2022-08-02T06:08:54;7.13;;;3.10;;
30635;SDS011;17400;52.392;9.750;2022-08-02T06:11:30;5.97;;;3.83;;
30635;SDS011;17400;52.392;9.750;2022-08-02T06:14:02;9.02;;;2.95;;
30635;SDS011;17400;52.392;9.750;2022-08-02T06:16:33;5.50;;;2.90;;
30635;SDS011;17400;52.392;9.750;2022-08-02T06:19:11;4.47;;;2.90;;
30635;SDS011;17400;52.392;9.750;2022-08-02T06:21:45;4.10;;;2.70;;
30635;SDS011;17400;52.392;9.750;2022-08-02T06:24:51;5.30;;;2.47;;
30635;SDS011;17400;52.392;9.750;2022-08-02T06:27:52;6.03;;;3.00;;
30635;SDS011;17400;52.392;9.750;2022-08-02T06:30:40;8.20;;;2.75;;
30635;SDS011;17400;52.392;9.750;2022-08-02T06:33:29;5.57;;;3.00;;
30635;SDS011;17400;52.392;9.750;2022-08-02T06:36:18;3.45;;;2.40;;
30635;SDS011;17400;52.392;9.750;2022-08-02T06:39:11;4.10;;;2.58;;
30635;SDS011;17400;52.392;9.750;2022-08-02T06:42:24;5.90;;;2.33;;
30635;SDS011;17400;52.392;9.750;2022-08-02T06:45:02;5.28;;;2.35;;
30635;SDS011;17400;52.392;9.750;2022-08-02T06:48:04;4.72;;;2.35;;
30635;SDS011;17400;52.392;9.750;2022-08-02T06:50:36;3.20;;;2.00;;
30635;SDS011;17400;52.392;9.750;2022-08-02T06:53:08;3.42;;;2.45;;
30635;SDS011;17400;52.392;9.750;2022-08-02T06:55:42;3.15;;;2.58;;
30635;SDS011;17400;52.392;9.750;2022-08-02T06:58:14;7.85;;;3.22;;
30635;SDS011;17400;52.392;9.750;2022-08-02T07:00:43;4.93;;;2.83;;
30635;SDS011;17400;52.392;9.750;2022-08-02T07:03:13;5.40;;;2.90;;
30635;SDS011;17400;52.392;9.750;2022-08-02T07:05:41;6.95;;;3.25;;
30635;SDS011;17400;52.392;9.750;2022-08-02T07:08:14;5.07;;;2.80;;
30635;SDS011;17400;52.392;9.750;2022-08-02T07:10:44;6.00;;;2.53;;
30635;SDS011;17400;52.392;9.750;2022-08-02T07:13:13;6.32;;;2.58;;
30635;SDS011;17400;52.392;9.750;2022-08-02T07:15:41;6.80;;;3.65;;
30635;SDS011;17400;52.392;9.750;2022-08-02T07:18:16;7.20;;;3.08;;
30635;SDS011;17400;52.392;9.750;2022-08-02T07:20:43;4.18;;;2.55;;
30635;SDS011;17400;52.392;9.750;2022-08-02T07:23:14;3.63;;;2.00;;
30635;SDS011;17400;52.392;9.750;2022-08-02T07:25:44;3.20;;;1.98;;
30635;SDS011;17400;52.392;9.750;2022-08-02T07:28:36;6.78;;;3.28;;
30635;SDS011;17400;52.392;9.750;2022-08-02T07:31:04;4.53;;;2.38;;
30635;SDS011;17400;52.392;9.750;2022-08-02T07:33:32;7.15;;;3.67;;
30635;SDS011;17400;52.392;9.750;2022-08-02T07:36:05;4.93;;;2.45;;
30635;SDS011;17400;52.392;9.750;2022-08-02T07:38:42;4.18;;;2.45;;
30635;SDS011;17400;52.392;9.750;2022-08-02T07:41:12;5.50;;;3.10;;
30635;SDS011;17400;52.392;9.750;2022-08-02T07:43:42;4.15;;;2.42;;
30635;SDS011;17400;52.392;9.750;2022-08-02T07:46:10;6.00;;;2.75;;
30635;SDS011;17400;52.392;9.750;2022-08-02T07:48:39;5.03;;;2.58;;
30635;SDS011;17400;52.392;9.750;2022-08-02T07:51:07;5.65;;;2.95;;
30635;SDS011;17400;52.392;9.750;2022-08-02T07:53:40;7.57;;;3.50;;
30635;SDS011;17400;52.392;9.750;2022-08-02T07:56:18;5.60;;;3.70;;
30635;SDS011;17400;52.392;9.750;2022-08-02T07:58:49;8.35;;;3.65;;
30635;SDS011;17400;52.392;9.750;2022-08-02T08:01:19;5.20;;;3.25;;
30635;SDS011;17400;52.392;9.750;2022-08-02T08:03:47;5.40;;;3.15;;
30635;SDS011;17400;52.392;9.750;2022-08-02T08:06:16;5.45;;;2.35;;
30635;SDS011;17400;52.392;9.750;2022-08-02T08:08:54;4.60;;;2.88;;
30635;SDS011;17400;52.392;9.750;2022-08-02T08:11:23;9.50;;;2.72;;
30635;SDS011;17400;52.392;9.750;2022-08-02T08:13:52;5.57;;;2.72;;
30635;SDS011;17400;52.392;9.750;2022-08-02T08:16:20;3.28;;;2.05;;
30635;SDS011;17400;52.392;9.750;2022-08-02T08:18:48;3.40;;;2.38;;
30635;SDS011;17400;52.392;9.750;2022-08-02T08:21:16;6.28;;;2.83;;
30635;SDS011;17400;52.392;9.750;2022-08-02T08:23:44;4.80;;;3.33;;
30635;SDS011;17400;52.392;9.750;2022-08-02T08:26:15;5.25;;;3.30;;
30635;SDS011;17400;52.392;9.750;2022-08-02T08:28:45;5.65;;;3.05;;
30635;SDS011;17400;52.392;9.750;2022-08-02T08:31:16;6.60;;;3.80;;
30635;SDS011;17400;52.392;9.750;2022-08-02T08:33:44;3.92;;;2.97;;
30635;SDS011;17400;52.392;9.750;2022-08-02T08:36:13;3.78;;;2.45;;
30635;SDS011;17400;52.392;9.750;2022-08-02T08:38:47;8.43;;;3.47;;
30635;SDS011;17400;52.392;9.750;2022-08-02T08:41:18;6.13;;;2.92;;
30635;SDS011;17400;52.392;9.750;2022-08-02T08:43:48;3.95;;;2.85;;
30635;SDS011;17400;52.392;9.750;2022-08-02T08:46:23;5.53;;;2.58;;
30635;SDS011;17400;52.392;9.750;2022-08-02T08:48:57;5.63;;;2.70;;
30635;SDS011;17400;52.392;9.750;2022-08-02T08:51:29;5.35;;;3.17;;
30635;SDS011;17400;52.392;9.750;2022-08-02T08:54:01;5.55;;;2.75;;
30635;SDS011;17400;52.392;9.750;2022-08-02T08:56:31;7.35;;;3.40;;
30635;SDS011;17400;52.392;9.750;2022-08-02T08:59:06;3.95;;;2.60;;
30635;SDS011;17400;52.392;9.750;2022-08-02T09:01:36;4.78;;;2.47;;
30635;SDS011;17400;52.392;9.750;2022-08-02T09:04:17;7.50;;;3.30;;
30635;SDS011;17400;52.392;9.750;2022-08-02T09:06:49;7.75;;;3.05;;
30635;SDS011;17400;52.392;9.750;2022-08-02T09:09:18;3.17;;;2.25;;
30635;SDS011;17400;52.392;9.750;2022-08-02T09:11:47;3.17;;;1.90;;
30635;SDS011;17400;52.392;9.750;2022-08-02T09:14:25;5.65;;;2.50;;
30635;SDS011;17400;52.392;9.750;2022-08-02T09:17:08;4.20;;;2.35;;
30635;SDS011;17400;52.392;9.750;2022-08-02T09:19:40;2.60;;;1.67;;
30635;SDS011;17400;52.392;9.750;2022-08-02T09:22:14;3.30;;;2.28;;
30635;SDS011;17400;52.392;9.750;2022-08-02T09:24:43;3.75;;;1.88;;
30635;SDS011;17400;52.392;9.750;2022-08-02T09:27:17;6.15;;;2.05;;
30635;SDS011;17400;52.392;9.750;2022-08-02T09:29:50;2.75;;;2.22;;
30635;SDS011;17400;52.392;9.750;2022-08-02T09:32:44;3.33;;;2.55;;
30635;SDS011;17400;52.392;9.750;2022-08-02T09:35:28;4.72;;;3.50;;
30635;SDS011;17400;52.392;9.750;2022-08-02T09:38:20;7.88;;;2.30;;
30635;SDS011;17400;52.392;9.750;2022-08-02T09:40:52;6.50;;;3.00;;
30635;SDS011;17400;52.392;9.750;2022-08-02T09:43:35;5.10;;;3.40;;
30635;SDS011;17400;52.392;9.750;2022-08-02T09:46:32;5.70;;;2.40;;
30635;SDS011;17400;52.392;9.750;2022-08-02T09:49:06;5.68;;;2.35;;
30635;SDS011;17400;52.392;9.750;2022-08-02T09:51:46;6.40;;;2.80;;
30635;SDS011;17400;52.392;9.750;2022-08-02T09:54:19;3.25;;;2.30;;
30635;SDS011;17400;52.392;9.750;2022-08-02T09:56:49;4.82;;;2.85;;
30635;SDS011;17400;52.392;9.750;2022-08-02T09:59:20;3.97;;;2.60;;
30635;SDS011;17400;52.392;9.750;2022-08-02T10:02:09;3.78;;;2.13;;
30635;SDS011;17400;52.392;9.750;2022-08-02T10:04:43;4.90;;;3.88;;
30635;SDS011;17400;52.392;9.750;2022-08-02T10:07:19;6.30;;;2.35;;
30635;SDS011;17400;52.392;9.750;2022-08-02T10:09:53;5.28;;;2.30;;
30635;SDS011;17400;52.392;9.750;2022-08-02T10:12:25;4.05;;;2.00;;
30635;SDS011;17400;52.392;9.750;2022-08-02T10:15:07;4.88;;;2.83;;
30635;SDS011;17400;52.392;9.750;2022-08-02T10:17:41;11.15;;;4.88;;
30635;SDS011;17400;52.392;9.750;2022-08-02T10:20:17;4.93;;;2.70;;
30635;SDS011;17400;52.392;9.750;2022-08-02T10:22:51;3.08;;;2.00;;
30635;SDS011;17400;52.392;9.750;2022-08-02T10:25:26;4.63;;;2.92;;
30635;SDS011;17400;52.392;9.750;2022-08-02T10:27:56;4.88;;;2.58;;
30635;SDS011;17400;52.392;9.750;2022-08-02T10:30:31;2.65;;;1.90;;
30635;SDS011;17400;52.392;9.750;2022-08-02T10:33:03;3.80;;;2.20;;
30635;SDS011;17400;52.392;9.750;2022-08-02T10:35:42;2.92;;;1.92;;
30635;SDS011;17400;52.392;9.750;2022-08-02T10:38:32;3.17;;;2.45;;
30635;SDS011;17400;52.392;9.750;2022-08-02T10:41:04;5.90;;;2.20;;
30635;SDS011;17400;52.392;9.750;2022-08-02T10:43:41;5.60;;;2.03;;
30635;SDS011;17400;52.392;9.750;2022-08-02T10:49:07;3.28;;;2.10;;
30635;SDS011;17400;52.392;9.750;2022-08-02T10:52:03;5.28;;;2.85;;
30635;SDS011;17400;52.392;9.750;2022-08-02T10:54:39;4.75;;;2.03;;
30635;SDS011;17400;52.392;9.750;2022-08-02T10:57:13;3.45;;;2.22;;
30635;SDS011;17400;52.392;9.750;2022-08-02T10:59:51;4.25;;;2.92;;
30635;SDS011;17400;52.392;9.750;2022-08-02T11:02:46;5.45;;;3.00;;
30635;SDS011;17400;52.392;9.750;2022-08-02T11:05:27;4.00;;;2.80;;
30635;SDS011;17400;52.392;9.750;2022-08-02T11:08:16;7.28;;;2.42;;
30635;SDS011;17400;52.392;9.750;2022-08-02T11:10:47;3.10;;;2.20;;
30635;SDS011;17400;52.392;9.750;2022-08-02T11:13:28;4.88;;;3.08;;
30635;SDS011;17400;52.392;9.750;2022-08-02T11:16:17;4.30;;;2.92;;
30635;SDS011;17400;52.392;9.750;2022-08-02T11:19:15;5.75;;;2.85;;
30635;SDS011;17400;52.392;9.750;2022-08-02T11:22:02;4.80;;;2.50;;
30635;SDS011;17400;52.392;9.750;2022-08-02T11:24:53;3.75;;;2.10;;
30635;SDS011;17400;52.392;9.750;2022-08-02T11:27:29;8.02;;;2.53;;
30635;SDS011;17400;52.392;9.750;2022-08-02T11:30:17;2.92;;;2.30;;
30635;SDS011;17400;52.392;9.750;2022-08-02T11:32:58;2.78;;;2.28;;
30635;SDS011;17400;52.392;9.750;2022-08-02T11:35:46;4.57;;;2.63;;
30635;SDS011;17400;52.392;9.750;2022-08-02T11:38:19;2.17;;;1.88;;
30635;SDS011;17400;52.392;9.750;2022-08-02T11:41:02;5.50;;;2.38;;
30635;SDS011;17400;52.392;9.750;2022-08-02T11:44:09;6.20;;;2.28;;
30635;SDS011;17400;52.392;9.750;2022-08-02T11:47:25;2.83;;;2.08;;
30635;SDS011;17400;52.392;9.750;2022-08-02T11:50:28;2.95;;;2.03;;
30635;SDS011;17400;52.392;9.750;2022-08-02T11:52:58;4.45;;;2.05;;
30635;SDS011;17400;52.392;9.750;2022-08-02T11:56:05;3.88;;;1.63;;
30635;SDS011;17400;52.392;9.750;2022-08-02T11:58:41;4.97;;;1.60;;
30635;SDS011;17400;52.392;9.750;2022-08-02T12:01:27;2.60;;;1.55;;
30635;SDS011;17400;52.392;9.750;2022-08-02T12:04:14;3.60;;;1.58;;
30635;SDS011;17400;52.392;9.750;2022-08-02T12:06:54;4.63;;;2.15;;
30635;SDS011;17400;52.392;9.750;2022-08-02T12:09:49;2.13;;;1.73;;
30635;SDS011;17400;52.392;9.750;2022-08-02T12:12:21;2.25;;;1.60;;
30635;SDS011;17400;52.392;9.750;2022-08-02T12:15:29;3.65;;;1.90;;
30635;SDS011;17400;52.392;9.750;2022-08-02T12:18:12;2.25;;;1.67;;
30635;SDS011;17400;52.392;9.750;2022-08-02T12:21:01;4.22;;;1.80;;
30635;SDS011;17400;52.392;9.750;2022-08-02T12:23:41;2.13;;;1.90;;
30635;SDS011;17400;52.392;9.750;2022-08-02T12:26:28;7.47;;;4.53;;
30635;SDS011;17400;52.392;9.750;2022-08-02T12:29:08;7.38;;;3.65;;
30635;SDS011;17400;52.392;9.750;2022-08-02T12:32:03;2.92;;;2.13;;
30635;SDS011;17400;52.392;9.750;2022-08-02T12:34:42;2.67;;;1.80;;
30635;SDS011;17400;52.392;9.750;2022-08-02T12:37:23;2.05;;;1.85;;
30635;SDS011;17400;52.392;9.750;2022-08-02T12:39:56;1.58;;;1.42;;
30635;SDS011;17400;52.392;9.750;2022-08-02T12:42:28;2.00;;;1.80;;
30635;SDS011;17400;52.392;9.750;2022-08-02T12:45:55;3.15;;;2.22;;
30635;SDS011;17400;52.392;9.750;2022-08-02T12:48:36;2.85;;;1.70;;
30635;SDS011;17400;52.392;9.750;2022-08-02T12:51:30;2.95;;;2.25;;
30635;SDS011;17400;52.392;9.750;2022-08-02T12:54:25;2.88;;;2.10;;
30635;SDS011;17400;52.392;9.750;2022-08-02T12:57:08;2.90;;;1.52;;
30635;SDS011;17400;52.392;9.750;2022-08-02T12:59:48;3.95;;;2.00;;
30635;SDS011;17400;52.392;9.750;2022-08-02T13:02:26;4.18;;;2.00;;
30635;SDS011;17400;52.392;9.750;2022-08-02T13:05:01;4.18;;;2.72;;
30635;SDS011;17400;52.392;9.750;2022-08-02T13:07:34;3.97;;;2.08;;
30635;SDS011;17400;52.392;9.750;2022-08-02T13:10:03;2.55;;;1.88;;
30635;SDS011;17400;52.392;9.750;2022-08-02T13:13:03;3.63;;;2.15;;
30635;SDS011;17400;52.392;9.750;2022-08-02T13:15:55;1.73;;;1.52;;
30635;SDS011;17400;52.392;9.750;2022-08-02T13:18:37;2.92;;;2.00;;
30635;SDS011;17400;52.392;9.750;2022-08-02T13:21:13;3.00;;;2.70;;
30635;SDS011;17400;52.392;9.750;2022-08-02T13:24:06;5.30;;;2.35;;
30635;SDS011;17400;52.392;9.750;2022-08-02T13:26:58;2.15;;;1.90;;
30635;SDS011;17400;52.392;9.750;2022-08-02T13:29:48;3.17;;;1.88;;
30635;SDS011;17400;52.392;9.750;2022-08-02T13:32:39;2.55;;;1.98;;
30635;SDS011;17400;52.392;9.750;2022-08-02T13:35:33;3.65;;;2.00;;
30635;SDS011;17400;52.392;9.750;2022-08-02T13:38:08;4.78;;;2.13;;
30635;SDS011;17400;52.392;9.750;2022-08-02T13:40:37;5.70;;;2.53;;
30635;SDS011;17400;52.392;9.750;2022-08-02T13:43:33;3.08;;;2.38;;
30635;SDS011;17400;52.392;9.750;2022-08-02T13:46:27;2.50;;;2.08;;
30635;SDS011;17400;52.392;9.750;2022-08-02T13:49:12;3.08;;;2.50;;
30635;SDS011;17400;52.392;9.750;2022-08-02T13:52:15;2.28;;;1.80;;
30635;SDS011;17400;52.392;9.750;2022-08-02T13:54:55;5.20;;;2.13;;
30635;SDS011;17400;52.392;9.750;2022-08-02T13:57:28;3.10;;;2.35;;
30635;SDS011;17400;52.392;9.750;2022-08-02T14:00:07;4.35;;;1.77;;
30635;SDS011;17400;52.392;9.750;2022-08-02T14:02:45;3.33;;;2.63;;
30635;SDS011;17400;52.392;9.750;2022-08-02T14:05:20;2.22;;;1.92;;
30635;SDS011;17400;52.392;9.750;2022-08-02T14:08:26;2.95;;;2.38;;
30635;SDS011;17400;52.392;9.750;2022-08-02T14:11:04;3.55;;;2.35;;
30635;SDS011;17400;52.392;9.750;2022-08-02T14:13:32;5.18;;;4.68;;
30635;SDS011;17400;52.392;9.750;2022-08-02T14:16:02;4.00;;;3.03;;
30635;SDS011;17400;52.392;9.750;2022-08-02T14:18:49;2.85;;;2.33;;
30635;SDS011;17400;52.392;9.750;2022-08-02T14:21:17;4.38;;;2.88;;
30635;SDS011;17400;52.392;9.750;2022-08-02T14:23:47;3.75;;;2.47;;
30635;SDS011;17400;52.392;9.750;2022-08-02T14:26:17;2.55;;;2.10;;
30635;SDS011;17400;52.392;9.750;2022-08-02T14:29:00;3.33;;;2.40;;
30635;SDS011;17400;52.392;9.750;2022-08-02T14:31:44;3.10;;;2.38;;
30635;SDS011;17400;52.392;9.750;2022-08-02T14:34:12;4.25;;;2.60;;
30635;SDS011;17400;52.392;9.750;2022-08-02T14:36:42;3.42;;;2.60;;
30635;SDS011;17400;52.392;9.750;2022-08-02T14:39:15;4.00;;;2.80;;
30635;SDS011;17400;52.392;9.750;2022-08-02T14:41:48;4.90;;;2.58;;
30635;SDS011;17400;52.392;9.750;2022-08-02T14:44:26;3.13;;;2.63;;
30635;SDS011;17400;52.392;9.750;2022-08-02T14:46:56;2.97;;;2.45;;
30635;SDS011;17400;52.392;9.750;2022-08-02T14:49:33;3.05;;;2.38;;
30635;SDS011;17400;52.392;9.750;2022-08-02T14:52:12;4.25;;;2.97;;
30635;SDS011;17400;52.392;9.750;2022-08-02T14:54:42;3.72;;;2.40;;
30635;SDS011;17400;52.392;9.750;2022-08-02T14:57:15;4.63;;;2.00;;
30635;SDS011;17400;52.392;9.750;2022-08-02T14:59:48;3.22;;;2.58;;
30635;SDS011;17400;52.392;9.750;2022-08-02T15:02:21;2.72;;;2.10;;
30635;SDS011;17400;52.392;9.750;2022-08-02T15:04:55;4.10;;;2.53;;
30635;SDS011;17400;52.392;9.750;2022-08-02T15:07:26;3.38;;;2.35;;
30635;SDS011;17400;52.392;9.750;2022-08-02T15:10:20;2.83;;;2.20;;
30635;SDS011;17400;52.392;9.750;2022-08-02T15:13:02;2.95;;;2.25;;
30635;SDS011;17400;52.392;9.750;2022-08-02T15:15:35;2.72;;;2.35;;
30635;SDS011;17400;52.392;9.750;2022-08-02T15:18:10;2.70;;;2.30;;
30635;SDS011;17400;52.392;9.750;2022-08-02T15:20:48;5.50;;;2.03;;
30635;SDS011;17400;52.392;9.750;2022-08-02T15:23:23;2.63;;;2.22;;
30635;SDS011;17400;52.392;9.750;2022-08-02T15:26:05;2.53;;;2.33;;
30635;SDS011;17400;52.392;9.750;2022-08-02T15:28:40;3.25;;;2.10;;
30635;SDS011;17400;52.392;9.750;2022-08-02T15:31:10;1.98;;;1.77;;
30635;SDS011;17400;52.392;9.750;2022-08-02T15:33:59;2.33;;;1.90;;
30635;SDS011;17400;52.392;9.750;2022-08-02T15:36:31;3.28;;;2.28;;
30635;SDS011;17400;52.392;9.750;2022-08-02T15:39:03;3.42;;;2.15;;
30635;SDS011;17400;52.392;9.750;2022-08-02T15:41:41;3.03;;;2.38;;
30635;SDS011;17400;52.392;9.750;2022-08-02T15:44:10;2.80;;;1.98;;
30635;SDS011;17400;52.392;9.750;2022-08-02T15:46:47;2.85;;;1.80;;
30635;SDS011;17400;52.392;9.750;2022-08-02T15:49:31;2.20;;;1.77;;
30635;SDS011;17400;52.392;9.750;2022-08-02T15:52:07;1.73;;;1.50;;
30635;SDS011;17400;52.392;9.750;2022-08-02T15:54:47;2.70;;;2.03;;
30635;SDS011;17400;52.392;9.750;2022-08-02T15:57:36;3.42;;;2.03;;
30635;SDS011;17400;52.392;9.750;2022-08-02T16:00:10;2.45;;;1.73;;
30635;SDS011;17400;52.392;9.750;2022-08-02T16:02:44;2.22;;;1.80;;
30635;SDS011;17400;52.392;9.750;2022-08-02T16:05:27;2.70;;;2.17;;
30635;SDS011;17400;52.392;9.750;2022-08-02T16:08:01;2.78;;;2.30;;
30635;SDS011;17400;52.392;9.750;2022-08-02T16:10:31;3.30;;;2.08;;
30635;SDS011;17400;52.392;9.750;2022-08-02T16:13:07;6.63;;;2.85;;
30635;SDS011;17400;52.392;9.750;2022-08-02T16:15:57;3.65;;;2.03;;
30635;SDS011;17400;52.392;9.750;2022-08-02T16:18:25;4.55;;;2.28;;
30635;SDS011;17400;52.392;9.750;2022-08-02T16:20:53;5.15;;;3.60;;
30635;SDS011;17400;52.392;9.750;2022-08-02T16:23:25;2.63;;;2.10;;
30635;SDS011;17400;52.392;9.750;2022-08-02T16:26:13;6.32;;;3.15;;
30635;SDS011;17400;52.392;9.750;2022-08-02T16:28:52;3.45;;;2.85;;
30635;SDS011;17400;52.392;9.750;2022-08-02T16:31:21;5.82;;;2.85;;
30635;SDS011;17400;52.392;9.750;2022-08-02T16:33:51;2.63;;;2.20;;
30635;SDS011;17400;52.392;9.750;2022-08-02T16:36:23;3.17;;;2.38;;
30635;SDS011;17400;52.392;9.750;2022-08-02T16:38:53;2.67;;;2.17;;
30635;SDS011;17400;52.392;9.750;2022-08-02T16:41:24;2.40;;;1.98;;
30635;SDS011;17400;52.392;9.750;2022-08-02T16:44:20;3.60;;;2.40;;
30635;SDS011;17400;52.392;9.750;2022-08-02T16:46:55;3.50;;;2.50;;
30635;SDS011;17400;52.392;9.750;2022-08-02T16:49:37;4.18;;;2.40;;
30635;SDS011;17400;52.392;9.750;2022-08-02T16:52:25;3.33;;;2.47;;
30635;SDS011;17400;52.392;9.750;2022-08-02T16:54:54;2.45;;;2.00;;
30635;SDS011;17400;52.392;9.750;2022-08-02T16:57:23;5.35;;;2.80;;
30635;SDS011;17400;52.392;9.750;2022-08-02T17:00:10;4.13;;;2.30;;
30635;SDS011;17400;52.392;9.750;2022-08-02T17:02:45;2.97;;;2.63;;
30635;SDS011;17400;52.392;9.750;2022-08-02T17:05:14;4.65;;;2.95;;
30635;SDS011;17400;52.392;9.750;2022-08-02T17:07:42;3.35;;;2.55;;
30635;SDS011;17400;52.392;9.750;2022-08-02T17:10:32;3.30;;;2.88;;
30635;SDS011;17400;52.392;9.750;2022-08-02T17:13:09;4.05;;;2.10;;
30635;SDS011;17400;52.392;9.750;2022-08-02T17:15:42;3.15;;;2.80;;
30635;SDS011;17400;52.392;9.750;2022-08-02T17:18:30;4.10;;;2.75;;
30635;SDS011;17400;52.392;9.750;2022-08-02T17:21:07;4.50;;;2.30;;
30635;SDS011;17400;52.392;9.750;2022-08-02T17:23:35;3.10;;;2.53;;
30635;SDS011;17400;52.392;9.750;2022-08-02T17:26:24;4.85;;;2.67;;
30635;SDS011;17400;52.392;9.750;2022-08-02T17:28:55;4.15;;;2.90;;
30635;SDS011;17400;52.392;9.750;2022-08-02T17:31:44;3.45;;;2.67;;
30635;SDS011;17400;52.392;9.750;2022-08-02T17:34:31;3.88;;;3.15;;
30635;SDS011;17400;52.392;9.750;2022-08-02T17:37:08;3.50;;;2.47;;
30635;SDS011;17400;52.392;9.750;2022-08-02T17:39:37;4.72;;;3.03;;
30635;SDS011;17400;52.392;9.750;2022-08-02T17:42:17;4.60;;;2.90;;
30635;SDS011;17400;52.392;9.750;2022-08-02T17:44:51;3.22;;;2.30;;
30635;SDS011;17400;52.392;9.750;2022-08-02T17:47:34;4.63;;;2.70;;
30635;SDS011;17400;52.392;9.750;2022-08-02T17:50:10;4.50;;;2.92;;
30635;SDS011;17400;52.392;9.750;2022-08-02T17:52:39;5.80;;;3.72;;
30635;SDS011;17400;52.392;9.750;2022-08-02T17:55:20;4.57;;;3.72;;
30635;SDS011;17400;52.392;9.750;2022-08-02T17:57:48;4.28;;;3.13;;
30635;SDS011;17400;52.392;9.750;2022-08-02T18:00:23;6.00;;;3.00;;
30635;SDS011;17400;52.392;9.750;2022-08-02T18:02:59;2.65;;;2.42;;
30635;SDS011;17400;52.392;9.750;2022-08-02T18:05:38;3.42;;;2.47;;
30635;SDS011;17400;52.392;9.750;2022-08-02T18:08:21;6.15;;;4.32;;
30635;SDS011;17400;52.392;9.750;2022-08-02T18:10:50;5.35;;;3.72;;
30635;SDS011;17400;52.392;9.750;2022-08-02T18:13:18;6.05;;;4.25;;
30635;SDS011;17400;52.392;9.750;2022-08-02T18:15:47;6.72;;;3.85;;
30635;SDS011;17400;52.392;9.750;2022-08-02T18:18:17;5.55;;;3.85;;
30635;SDS011;17400;52.392;9.750;2022-08-02T18:20:55;3.42;;;2.72;;
30635;SDS011;17400;52.392;9.750;2022-08-02T18:23:25;6.95;;;3.05;;
30635;SDS011;17400;52.392;9.750;2022-08-02T18:25:55;3.47;;;2.90;;
30635;SDS011;17400;52.392;9.750;2022-08-02T18:28:24;4.28;;;3.20;;
30635;SDS011;17400;52.392;9.750;2022-08-02T18:30:52;4.38;;;3.35;;
30635;SDS011;17400;52.392;9.750;2022-08-02T18:33:22;8.85;;;3.63;;
30635;SDS011;17400;52.392;9.750;2022-08-02T18:36:10;7.68;;;3.08;;
30635;SDS011;17400;52.392;9.750;2022-08-02T18:38:50;4.88;;;2.67;;
30635;SDS011;17400;52.392;9.750;2022-08-02T18:41:23;4.85;;;2.75;;
30635;SDS011;17400;52.392;9.750;2022-08-02T18:43:54;5.60;;;3.10;;
30635;SDS011;17400;52.392;9.750;2022-08-02T18:46:29;3.13;;;2.72;;
30635;SDS011;17400;52.392;9.750;2022-08-02T18:49:02;6.68;;;4.13;;
30635;SDS011;17400;52.392;9.750;2022-08-02T18:51:40;4.05;;;3.22;;
30635;SDS011;17400;52.392;9.750;2022-08-02T18:54:10;6.18;;;4.22;;
30635;SDS011;17400;52.392;9.750;2022-08-02T18:56:52;7.03;;;4.95;;
30635;SDS011;17400;52.392;9.750;2022-08-02T18:59:24;10.32;;;7.07;;
30635;SDS011;17400;52.392;9.750;2022-08-02T19:01:54;12.63;;;7.90;;
30635;SDS011;17400;52.392;9.750;2022-08-02T19:04:25;10.10;;;6.80;;
30635;SDS011;17400;52.392;9.750;2022-08-02T19:06:55;7.28;;;5.30;;
30635;SDS011;17400;52.392;9.750;2022-08-02T19:09:34;7.75;;;5.43;;
30635;SDS011;17400;52.392;9.750;2022-08-02T19:12:07;7.80;;;4.32;;
30635;SDS011;17400;52.392;9.750;2022-08-02T19:14:42;8.48;;;5.30;;
30635;SDS011;17400;52.392;9.750;2022-08-02T19:17:13;6.68;;;4.20;;
30635;SDS011;17400;52.392;9.750;2022-08-02T19:20:04;8.63;;;3.58;;
30635;SDS011;17400;52.392;9.750;2022-08-02T19:22:45;6.57;;;4.15;;
30635;SDS011;17400;52.392;9.750;2022-08-02T19:25:19;5.22;;;3.88;;
30635;SDS011;17400;52.392;9.750;2022-08-02T19:27:53;6.03;;;3.63;;
30635;SDS011;17400;52.392;9.750;2022-08-02T19:30:26;6.32;;;3.70;;
30635;SDS011;17400;52.392;9.750;2022-08-02T19:32:55;6.45;;;4.57;;
30635;SDS011;17400;52.392;9.750;2022-08-02T19:35:39;8.23;;;5.18;;
30635;SDS011;17400;52.392;9.750;2022-08-02T19:38:33;6.28;;;4.20;;
30635;SDS011;17400;52.392;9.750;2022-08-02T19:41:07;7.43;;;4.65;;
30635;SDS011;17400;52.392;9.750;2022-08-02T19:43:36;6.63;;;5.00;;
30635;SDS011;17400;52.392;9.750;2022-08-02T19:46:25;12.55;;;5.82;;
30635;SDS011;17400;52.392;9.750;2022-08-02T19:48:56;9.30;;;6.35;;
30635;SDS011;17400;52.392;9.750;2022-08-02T19:51:45;8.63;;;5.15;;
30635;SDS011;17400;52.392;9.750;2022-08-02T19:54:21;8.65;;;6.13;;